createdAt,value
2023-04-01T00:01:17.650Z,99220.69
2023-04-01T00:03:48.337Z,99216.81
2023-04-01T00:06:19.761Z,99228.41
2023-04-01T00:08:48.208Z,99223.75
2023-04-01T00:11:17.293Z,99223.00
2023-04-01T00:13:46.284Z,99219.91
2023-04-01T00:16:21.665Z,99228.41
2023-04-01T00:18:52.980Z,99216.06
2023-04-01T00:21:22.948Z,99214.50
2023-04-01T00:23:51.644Z,99224.56
2023-04-01T00:26:22.323Z,99216.06
2023-04-01T00:28:51.171Z,99213.38
2023-04-01T00:31:19.698Z,99210.66
2023-04-01T00:33:47.959Z,99213.75
2023-04-01T00:36:19.945Z,99207.97
2023-04-01T00:38:48.491Z,99214.13
2023-04-01T00:41:18.915Z,99212.97
2023-04-01T00:43:51.005Z,99202.16
2023-04-01T00:46:19.708Z,99202.94
2023-04-01T00:48:52.457Z,99195.97
2023-04-01T00:51:26.311Z,99202.53
2023-04-01T00:53:58.078Z,99197.53
2023-04-01T00:56:32.424Z,99199.47
2023-04-01T00:59:04.603Z,99207.56
2023-04-01T01:01:34.206Z,99197.13
2023-04-01T01:04:03.261Z,99200.59
2023-04-01T01:06:45.973Z,99194.41
2023-04-01T01:09:33.178Z,99199.84
2023-04-01T01:12:10.407Z,99202.94
2023-04-01T01:15:01.423Z,99190.59
2023-04-01T01:17:42.766Z,99199.88
2023-04-01T01:20:45.253Z,99221.50
2023-04-01T01:24:08.347Z,99209.16
2023-04-01T01:27:01.436Z,99219.97
2023-04-01T01:30:07.099Z,99209.16
2023-04-01T01:33:09.223Z,99223.03
2023-04-01T01:35:43.346Z,99228.81
2023-04-01T01:38:16.132Z,99231.16
2023-04-01T01:40:48.117Z,99228.84
2023-04-01T01:43:21.545Z,99233.09
2023-04-01T01:45:54.810Z,99226.16
2023-04-01T01:48:24.334Z,99236.59
2023-04-01T01:50:54.979Z,99231.97
2023-04-01T01:53:23.231Z,99234.28
2023-04-01T01:55:51.806Z,99236.59
2023-04-01T01:58:25.111Z,99236.97
2023-04-01T02:00:57.510Z,99236.97
2023-04-01T02:03:29.325Z,99234.66
2023-04-01T02:06:02.252Z,99240.06
2023-04-01T02:08:36.946Z,99234.66
2023-04-01T02:11:08.300Z,99226.56
2023-04-01T02:13:42.401Z,99244.69
2023-04-01T02:16:17.787Z,99238.53
2023-04-01T02:18:48.531Z,99240.06
2023-04-01T02:21:19.829Z,99245.13
2023-04-01T02:23:49.533Z,99245.47
2023-04-01T02:26:18.358Z,99243.19
2023-04-01T02:28:50.671Z,99244.34
2023-04-01T02:31:19.527Z,99250.88
2023-04-01T02:33:49.078Z,99254.34
2023-04-01T02:36:18.999Z,99241.63
2023-04-01T02:38:49.143Z,99247.81
2023-04-01T02:41:17.423Z,99243.94
2023-04-01T02:43:45.812Z,99261.31
2023-04-01T02:46:14.038Z,99257.84
2023-04-01T02:48:42.256Z,99257.06
2023-04-01T02:51:11.153Z,99262.47
2023-04-01T02:53:40.765Z,99259.38
2023-04-01T02:56:09.098Z,99258.59
2023-04-01T02:58:37.333Z,99253.59
2023-04-01T03:01:05.846Z,99254.75
2023-04-01T03:03:34.266Z,99251.28
2023-04-01T03:06:08.070Z,99260.91
2023-04-01T03:08:36.432Z,99255.50
2023-04-01T03:11:06.900Z,99264.41
2023-04-01T03:13:35.439Z,99262.84
2023-04-01T03:16:03.876Z,99265.56
2023-04-01T03:18:32.179Z,99264.78
2023-04-01T03:21:16.369Z,99270.56
2023-04-01T03:23:44.565Z,99275.59
2023-04-01T03:26:14.651Z,99287.16
2023-04-01T03:28:43.067Z,99277.13
2023-04-01T03:31:12.217Z,99270.97
2023-04-01T03:33:40.916Z,99281.78
2023-04-01T03:36:10.069Z,99283.31
2023-04-01T03:38:38.545Z,99284.84
2023-04-01T03:41:07.082Z,99288.72
2023-04-01T03:43:36.649Z,99288.72
2023-04-01T03:46:04.882Z,99289.88
2023-04-01T03:48:33.137Z,99289.09
2023-04-01T03:51:01.408Z,99284.84
2023-04-01T03:53:29.631Z,99286.41
2023-04-01T03:55:57.759Z,99285.25
2023-04-01T03:58:26.208Z,99292.19
2023-04-01T04:00:55.975Z,99292.19
2023-04-01T04:03:25.235Z,99290.66
2023-04-01T04:05:53.498Z,99295.28
2023-04-01T04:08:22.579Z,99283.31
2023-04-01T04:10:57.552Z,99294.91
2023-04-01T04:13:25.842Z,99295.66
2023-04-01T04:15:55.395Z,99302.22
2023-04-01T04:18:23.655Z,99304.94
2023-04-01T04:20:52.171Z,99305.69
2023-04-01T04:23:21.218Z,99304.50
2023-04-01T04:25:59.831Z,99310.69
2023-04-01T04:28:28.813Z,99308.41
2023-04-01T04:30:58.735Z,99309.56
2023-04-01T04:33:27.959Z,99306.44
2023-04-01T04:35:58.938Z,99313.81
2023-04-01T04:38:28.521Z,99318.03
2023-04-01T04:40:57.605Z,99312.63
2023-04-01T04:43:26.189Z,99316.50
2023-04-01T04:45:54.460Z,99322.66
2023-04-01T04:48:24.067Z,99319.22
2023-04-01T04:50:53.381Z,99320.38
2023-04-01T04:53:21.986Z,99328.47
2023-04-01T04:55:51.894Z,99331.19
2023-04-01T04:58:20.718Z,99339.28
2023-04-01T05:00:49.711Z,99330.41
2023-04-01T05:03:18.157Z,99338.13
2023-04-01T05:05:53.470Z,99343.53
2023-04-01T05:08:22.370Z,99338.88
2023-04-01T05:10:50.687Z,99340.81
2023-04-01T05:13:18.854Z,99339.63
2023-04-01T05:15:47.130Z,99350.84
2023-04-01T05:18:17.026Z,99350.84
2023-04-01T05:20:51.120Z,99344.66
2023-04-01T05:23:21.537Z,99353.94
2023-04-01T05:25:53.784Z,99355.47
2023-04-01T05:28:22.517Z,99350.47
2023-04-01T05:30:51.079Z,99353.16
2023-04-01T05:33:19.338Z,99353.53
2023-04-01T05:35:47.528Z,99358.94
2023-04-01T05:38:17.091Z,99350.47
2023-04-01T05:40:45.697Z,99360.84
2023-04-01T05:43:14.227Z,99359.72
2023-04-01T05:45:42.428Z,99364.34
2023-04-01T05:48:10.662Z,99365.50
2023-04-01T05:50:38.806Z,99372.81
2023-04-01T05:53:06.992Z,99380.91
2023-04-01T05:55:37.840Z,99369.34
2023-04-01T05:58:06.427Z,99381.69
2023-04-01T06:00:34.737Z,99383.63
2023-04-01T06:03:03.033Z,99381.69
2023-04-01T06:05:37.398Z,99389.03
2023-04-01T06:08:12.800Z,99381.69
2023-04-01T06:11:01.275Z,99395.97
2023-04-01T06:13:50.667Z,99395.97
2023-04-01T06:16:31.961Z,99395.97
2023-04-01T06:19:24.930Z,99402.91
2023-04-01T06:22:32.401Z,99392.88
2023-04-01T06:25:33.079Z,99403.69
2023-04-01T06:28:42.421Z,99407.16
2023-04-01T06:31:27.176Z,99410.63
2023-04-01T06:34:19.525Z,99416.81
2023-04-01T06:37:13.298Z,99424.13
2023-04-01T06:40:01.199Z,99417.56
2023-04-01T06:43:02.179Z,99422.97
2023-04-01T06:45:40.087Z,99414.09
2023-04-01T06:48:44.113Z,99427.59
2023-04-01T06:51:28.807Z,99429.53
2023-04-01T06:54:03.821Z,99428.38
2023-04-01T06:56:34.552Z,99436.09
2023-04-01T06:59:07.915Z,99442.28
2023-04-01T07:01:43.532Z,99446.53
2023-04-01T07:04:16.792Z,99449.66
2023-04-01T07:06:51.091Z,99448.50
2023-04-01T07:09:23.952Z,99457.72
2023-04-01T07:11:55.937Z,99447.69
2023-04-01T07:14:32.539Z,99455.41
2023-04-01T07:17:08.410Z,99462.41
2023-04-01T07:19:44.877Z,99465.88
2023-04-01T07:22:28.323Z,99461.63
2023-04-01T07:24:59.026Z,99466.66
2023-04-01T07:27:27.411Z,99473.22
2023-04-01T07:29:58.508Z,99480.94
2023-04-01T07:32:36.155Z,99478.63
2023-04-01T07:35:24.683Z,99484.03
2023-04-01T07:38:11.573Z,99490.59
2023-04-01T07:40:49.277Z,99497.53
2023-04-01T07:43:40.453Z,99501.75
2023-04-01T07:46:23.051Z,99498.69
2023-04-01T07:48:59.685Z,99495.22
2023-04-01T07:51:34.360Z,99501.75
2023-04-01T07:54:12.033Z,99511.44
2023-04-01T07:56:49.039Z,99517.22
2023-04-01T07:59:24.631Z,99520.31
2023-04-01T08:02:02.121Z,99524.97
2023-04-01T08:04:49.649Z,99530.38
2023-04-01T08:07:24.855Z,99533.47
2023-04-01T08:10:02.964Z,99541.19
2023-04-01T08:12:44.989Z,99545.47
2023-04-01T08:15:24.302Z,99541.59
2023-04-01T08:18:06.674Z,99548.97
2023-04-01T08:20:43.481Z,99548.22
2023-04-01T08:23:18.352Z,99551.31
2023-04-01T08:25:54.779Z,99551.72
2023-04-01T08:28:32.100Z,99553.66
2023-04-01T08:31:07.088Z,99560.22
2023-04-01T08:33:35.959Z,99567.59
2023-04-01T08:36:11.254Z,99574.97
2023-04-01T08:38:45.009Z,99568.00
2023-04-01T08:42:11.741Z,99580.00
2023-04-01T08:45:33.623Z,99588.50
2023-04-01T08:48:29.171Z,99583.81
2023-04-01T08:51:34.014Z,99591.97
2023-04-01T08:54:35.412Z,99597.38
2023-04-01T08:57:07.599Z,99604.72
2023-04-01T08:59:55.477Z,99597.75
2023-04-01T09:03:09.512Z,99606.22
2023-04-01T09:06:05.547Z,99610.84
2023-04-01T09:08:52.809Z,99614.72
2023-04-01T09:11:42.228Z,99615.50
2023-04-01T09:14:32.958Z,99618.63
2023-04-01T09:17:46.540Z,99616.31
2023-04-01T09:20:40.838Z,99630.59
2023-04-01T09:23:38.752Z,99627.53
2023-04-01T09:26:36.400Z,99628.31
2023-04-01T09:29:16.613Z,99626.38
2023-04-01T09:32:15.418Z,99631.00
2023-04-01T09:34:57.190Z,99628.69
2023-04-01T09:37:37.227Z,99641.84
2023-04-01T09:40:26.832Z,99638.75
2023-04-01T09:43:25.142Z,99642.66
2023-04-01T09:46:27.425Z,99644.22
2023-04-01T09:49:41.002Z,99648.06
2023-04-01T09:52:27.778Z,99646.91
2023-04-01T09:55:27.552Z,99648.06
2023-04-01T09:58:43.545Z,99658.13
2023-04-01T10:01:55.466Z,99653.09
2023-04-01T10:05:00.395Z,99662.00
2023-04-01T10:08:23.286Z,99661.25
2023-04-01T10:11:44.984Z,99672.84
2023-04-01T10:14:36.903Z,99677.84
2023-04-01T10:17:57.889Z,99675.16
2023-04-01T10:21:08.013Z,99689.47
2023-04-01T10:24:12.341Z,99686.38
2023-04-01T10:27:38.880Z,99697.59
2023-04-01T10:31:01.541Z,99693.38
2023-04-01T10:34:01.166Z,99703.41
2023-04-01T10:36:53.068Z,99693.75
2023-04-01T10:40:09.908Z,99704.94
2023-04-01T10:43:12.486Z,99711.53
2023-04-01T10:46:19.831Z,99706.88
2023-04-01T10:49:41.665Z,99703.78
2023-04-01T10:52:59.115Z,99722.72
2023-04-01T10:56:28.548Z,99724.25
2023-04-01T10:59:27.510Z,99720.38
2023-04-01T11:02:52.302Z,99727.31
2023-04-01T11:06:05.869Z,99729.66
2023-04-01T11:09:21.229Z,99729.25
2023-04-01T11:12:51.922Z,99740.09
2023-04-01T11:15:47.473Z,99742.41
2023-04-01T11:18:53.458Z,99737.75
2023-04-01T11:22:18.461Z,99741.59
2023-04-01T11:25:27.244Z,99742.41
2023-04-01T11:28:46.271Z,99762.47
2023-04-01T11:31:37.764Z,99760.56
2023-04-01T11:34:30.504Z,99762.47
2023-04-01T11:37:10.328Z,99770.19
2023-04-01T11:39:52.713Z,99770.97
2023-04-01T11:42:32.451Z,99778.72
2023-04-01T11:45:17.959Z,99774.09
2023-04-01T11:48:09.794Z,99787.97
2023-04-01T11:51:05.520Z,99784.88
2023-04-01T11:53:46.880Z,99781.84
2023-04-01T11:56:44.985Z,99784.94
2023-04-01T11:59:45.827Z,99794.97
2023-04-01T12:02:24.510Z,99795.38
2023-04-01T12:05:35.211Z,99811.22
2023-04-01T12:08:17.918Z,99804.28
2023-04-01T12:10:56.721Z,99810.47
2023-04-01T12:13:37.032Z,99812.03
2023-04-01T12:16:27.072Z,99807.38
2023-04-01T12:19:02.148Z,99817.06
2023-04-01T12:21:38.377Z,99819.38
2023-04-01T12:24:49.797Z,99825.19
2023-04-01T12:27:37.676Z,99829.84
2023-04-01T12:30:37.149Z,99832.91
2023-04-01T12:33:45.286Z,99838.31
2023-04-01T12:36:42.628Z,99838.31
2023-04-01T12:39:35.737Z,99850.72
2023-04-01T12:42:18.649Z,99838.31
2023-04-01T12:45:06.298Z,99845.28
2023-04-01T12:48:13.313Z,99853.81
2023-04-01T12:51:28.856Z,99856.53
2023-04-01T12:54:25.022Z,99849.94
2023-04-01T12:57:12.991Z,99850.00
2023-04-01T13:00:01.198Z,99864.66
2023-04-01T13:02:47.352Z,99862.38
2023-04-01T13:05:41.363Z,99858.53
2023-04-01T13:08:38.935Z,99868.97
2023-04-01T13:11:21.610Z,99869.34
2023-04-01T13:14:43.556Z,99872.47
2023-04-01T13:17:22.850Z,99872.47
2023-04-01T13:20:04.977Z,99874.81
2023-04-01T13:22:50.836Z,99879.44
2023-04-01T13:25:29.282Z,99886.38
2023-04-01T13:28:06.543Z,99886.81
2023-04-01T13:30:44.990Z,99894.56
2023-04-01T13:33:28.492Z,99891.50
2023-04-01T13:36:10.636Z,99898.09
2023-04-01T13:39:04.689Z,99903.50
2023-04-01T13:41:48.808Z,99900.03
2023-04-01T13:44:24.361Z,99901.59
2023-04-01T13:47:35.007Z,99902.75
2023-04-01T13:50:23.203Z,99907.00
2023-04-01T13:53:29.341Z,99911.66
2023-04-01T13:56:10.995Z,99910.88
2023-04-01T13:59:04.542Z,99917.47
2023-04-01T14:01:43.212Z,99912.78
2023-04-01T14:04:47.545Z,99912.78
2023-04-01T14:07:39.606Z,99922.81
2023-04-01T14:10:19.778Z,99927.84
2023-04-01T14:12:55.032Z,99920.84
2023-04-01T14:15:44.568Z,99921.25
2023-04-01T14:18:58.015Z,99935.13
2023-04-01T14:21:37.274Z,99929.72
2023-04-01T14:24:48.913Z,99936.69
2023-04-01T14:27:44.185Z,99939.41
2023-04-01T14:30:43.809Z,99943.63
2023-04-01T14:33:33.766Z,99942.88
2023-04-01T14:36:32.858Z,99941.34
2023-04-01T14:39:18.282Z,99952.97
2023-04-01T14:41:55.889Z,99946.38
2023-04-01T14:44:50.554Z,99955.31
2023-04-01T14:47:45.990Z,99962.28
2023-04-01T14:50:18.785Z,99963.81
2023-04-01T14:52:59.897Z,99961.50
2023-04-01T14:55:36.946Z,99971.56
2023-04-01T14:58:13.957Z,99969.25
2023-04-01T15:00:58.214Z,99971.53
2023-04-01T15:03:32.249Z,99980.00
2023-04-01T15:06:34.902Z,99977.25
2023-04-01T15:09:15.004Z,99980.75
2023-04-01T15:11:59.025Z,99993.88
2023-04-01T15:15:00.853Z,99994.22
2023-04-01T15:17:47.558Z,99992.69
2023-04-01T15:20:54.390Z,100001.56
2023-04-01T15:23:37.074Z,100003.94
2023-04-01T15:26:45.232Z,100007.75
2023-04-01T15:29:43.542Z,100006.22
2023-04-01T15:32:19.968Z,100010.09
2023-04-01T15:34:56.422Z,100021.63
2023-04-01T15:37:37.449Z,100023.91
2023-04-01T15:40:19.882Z,100023.88
2023-04-01T15:43:08.549Z,100028.13
2023-04-01T15:45:54.180Z,100041.66
2023-04-01T15:48:44.044Z,100042.03
2023-04-01T15:51:26.108Z,100041.97
2023-04-01T15:54:18.458Z,100050.88
2023-04-01T15:57:06.646Z,100048.59
2023-04-01T16:00:12.608Z,100051.69
2023-04-01T16:02:52.015Z,100055.19
2023-04-01T16:05:36.997Z,100060.59
2023-04-01T16:08:42.592Z,100054.41
2023-04-01T16:11:28.575Z,100062.88
2023-04-01T16:14:12.339Z,100064.81
2023-04-01T16:17:01.707Z,100067.16
2023-04-01T16:19:43.902Z,100066.00
2023-04-01T16:22:19.515Z,100071.00
2023-04-01T16:24:53.846Z,100068.75
2023-04-01T16:27:31.797Z,100080.34
2023-04-01T16:30:12.479Z,100073.72
2023-04-01T16:32:48.534Z,100074.13
2023-04-01T16:35:30.926Z,100084.16
2023-04-01T16:38:09.717Z,100084.16
2023-04-01T16:40:46.799Z,100087.25
2023-04-01T16:43:25.503Z,100088.41
2023-04-01T16:46:34.000Z,100088.78
2023-04-01T16:49:19.575Z,100100.72
2023-04-01T16:51:56.017Z,100106.13
2023-04-01T16:54:33.917Z,100111.91
2023-04-01T16:57:17.941Z,100109.59
2023-04-01T16:59:54.077Z,100108.06
2023-04-01T17:02:28.798Z,100121.94
2023-04-01T17:05:03.866Z,100126.56
2023-04-01T17:07:46.645Z,100125.00
2023-04-01T17:10:37.580Z,100137.38
2023-04-01T17:13:32.209Z,100139.75
2023-04-01T17:16:41.290Z,100144.00
2023-04-01T17:19:28.011Z,100144.38
2023-04-01T17:22:07.815Z,100150.91
2023-04-01T17:24:54.341Z,100143.53
2023-04-01T17:27:36.895Z,100150.50
2023-04-01T17:30:19.501Z,100156.69
2023-04-01T17:33:07.056Z,100164.44
2023-04-01T17:35:42.001Z,100166.72
2023-04-01T17:38:32.257Z,100165.59
2023-04-01T17:41:07.672Z,100173.69
2023-04-01T17:43:45.345Z,100175.19
2023-04-01T17:46:35.576Z,100183.31
2023-04-01T17:49:24.586Z,100174.78
2023-04-01T17:52:04.392Z,100186.75
2023-04-01T17:54:44.296Z,100186.34
2023-04-01T17:57:39.914Z,100195.19
2023-04-01T18:00:27.178Z,100200.97
2023-04-01T18:03:09.037Z,100202.09
2023-04-01T18:05:53.669Z,100209.00
2023-04-01T18:08:40.588Z,100205.84
2023-04-01T18:11:24.750Z,100219.00
2023-04-01T18:14:36.843Z,100213.53
2023-04-01T18:17:35.536Z,100230.88
2023-04-01T18:20:38.162Z,100228.19
2023-04-01T18:23:21.345Z,100228.16
2023-04-01T18:25:54.632Z,100233.97
2023-04-01T18:28:37.309Z,100234.38
2023-04-01T18:31:13.422Z,100241.72
2023-04-01T18:33:51.951Z,100246.34
2023-04-01T18:36:29.109Z,100256.38
2023-04-01T18:39:04.956Z,100258.31
2023-04-01T18:41:38.382Z,100259.88
2023-04-01T18:44:25.694Z,100259.88
2023-04-01T18:47:05.503Z,100275.31
2023-04-01T18:49:46.771Z,100271.47
2023-04-01T18:52:23.222Z,100283.41
2023-04-01T18:55:32.725Z,100284.97
2023-04-01T18:58:17.013Z,100278.44
2023-04-01T19:00:53.592Z,100291.53
2023-04-01T19:03:27.933Z,100304.66
2023-04-01T19:05:58.993Z,100306.19
2023-04-01T19:08:33.466Z,100312.00
2023-04-01T19:11:11.840Z,100316.25
2023-04-01T19:13:53.576Z,100316.25
2023-04-01T19:16:40.056Z,100325.13
2023-04-01T19:19:24.163Z,100323.63
2023-04-01T19:22:00.484Z,100323.28
2023-04-01T19:24:52.788Z,100335.22
2023-04-01T19:27:33.660Z,100342.94
2023-04-01T19:30:19.911Z,100342.94
2023-04-01T19:33:00.851Z,100355.66
2023-04-01T19:35:40.684Z,100355.66
2023-04-01T19:38:22.017Z,100351.03
2023-04-01T19:40:57.763Z,100364.16
2023-04-01T19:43:45.325Z,100363.00
2023-04-01T19:46:25.566Z,100369.56
2023-04-01T19:49:26.326Z,100373.44
2023-04-01T19:52:04.505Z,100383.81
2023-04-01T19:54:42.731Z,100386.50
2023-04-01T19:57:22.375Z,100399.59
2023-04-01T19:59:58.564Z,100406.16
2023-04-01T20:02:42.171Z,100402.63
2023-04-01T20:05:41.106Z,100418.84
2023-04-01T20:08:19.111Z,100410.31
2023-04-01T20:11:00.741Z,100418.00
2023-04-01T20:13:44.088Z,100427.22
2023-04-01T20:16:16.027Z,100438.81
2023-04-01T20:18:52.996Z,100440.34
2023-04-01T20:21:35.669Z,100447.25
2023-04-01T20:24:17.432Z,100454.59
2023-04-01T20:26:51.995Z,100464.28
2023-04-01T20:29:44.702Z,100472.75
2023-04-01T20:32:32.610Z,100477.69
2023-04-01T20:35:23.398Z,100473.81
2023-04-01T20:38:02.124Z,100490.31
2023-04-01T20:40:37.879Z,100484.03
2023-04-01T20:43:48.630Z,100506.38
2023-04-01T20:46:22.950Z,100501.66
2023-04-01T20:49:28.285Z,100506.50
2023-04-01T20:52:02.575Z,100514.53
2023-04-01T20:54:49.634Z,100520.59
2023-04-01T20:57:24.077Z,100529.06
2023-04-01T21:00:09.858Z,100533.69
2023-04-01T21:03:03.326Z,100532.09
2023-04-01T21:06:12.696Z,100535.50
2023-04-01T21:08:57.118Z,100547.38
2023-04-01T21:11:34.894Z,100548.06
2023-04-01T21:14:47.006Z,100548.03
2023-04-01T21:17:25.170Z,100556.38
2023-04-01T21:20:16.203Z,100561.00
2023-04-01T21:23:02.047Z,100567.88
2023-04-01T21:25:41.183Z,100586.78
2023-04-01T21:28:39.185Z,100584.78
2023-04-01T21:31:46.706Z,100592.34
2023-04-01T21:34:52.861Z,100604.91
2023-04-01T21:37:43.941Z,100609.00
2023-04-01T21:40:55.921Z,100619.69
2023-04-01T21:43:56.612Z,100624.25
2023-04-01T21:47:11.265Z,100617.56
2023-04-01T21:50:30.256Z,100627.78
2023-04-01T21:53:54.918Z,100632.31
2023-04-01T21:57:12.378Z,100649.22
2023-04-01T22:00:17.259Z,100656.84
2023-04-01T22:03:41.283Z,100666.06
2023-04-01T22:06:27.654Z,100662.94
2023-04-01T22:09:10.298Z,100676.44
2023-04-01T22:11:56.344Z,100676.34
2023-04-01T22:14:34.619Z,100682.41
2023-04-01T22:17:18.001Z,100686.25
2023-04-01T22:19:56.031Z,100692.75
2023-04-01T22:22:30.701Z,100697.03
2023-04-01T22:25:07.046Z,100703.13
2023-04-01T22:27:43.798Z,100699.22
2023-04-01T22:30:20.888Z,100707.97
2023-04-01T22:32:53.199Z,100719.88
2023-04-01T22:35:36.007Z,100721.69
2023-04-01T22:38:19.894Z,100727.00
2023-04-01T22:40:55.763Z,100737.66
2023-04-01T22:43:33.498Z,100742.63
2023-04-01T22:46:27.482Z,100742.19
2023-04-01T22:49:06.072Z,100748.94
2023-04-01T22:51:45.708Z,100758.97
2023-04-01T22:54:25.045Z,100756.91
2023-04-01T22:56:58.562Z,100763.44
2023-04-01T22:59:34.286Z,100769.63
2023-04-01T23:02:08.749Z,100774.56
2023-04-01T23:04:43.493Z,100787.56
2023-04-01T23:07:36.330Z,100790.97
2023-04-01T23:10:08.418Z,100797.06
2023-04-01T23:12:37.266Z,100799.28
2023-04-01T23:15:06.578Z,100801.13
2023-04-01T23:17:47.493Z,100808.63
2023-04-01T23:21:00.971Z,100808.47
2023-04-01T23:23:55.695Z,100808.69
2023-04-01T23:26:33.454Z,100825.56
2023-04-01T23:29:02.646Z,100830.16
2023-04-01T23:31:41.158Z,100828.13
2023-04-01T23:34:30.405Z,100841.28
2023-04-01T23:37:04.733Z,100840.81
2023-04-01T23:39:36.714Z,100841.94
2023-04-01T23:42:08.219Z,100852.72
2023-04-01T23:44:38.452Z,100859.25
2023-04-01T23:47:10.069Z,100866.06
2023-04-01T23:49:42.463Z,100869.56
2023-04-01T23:52:21.960Z,100868.22
2023-04-01T23:54:55.131Z,100872.81
2023-04-01T23:57:29.348Z,100896.59
